ITY9902 VVNB-VHHX
Flight info
| Callsign | ITY9902 |
|---|---|
| Flight time | 1h 39m |
| Altitude | 35100 |
| Route | NAKHA3C NAKHA R474 GYA A599 POU |
| Aircraft | B738/M-SDE2E3FGHIRWXY/LB1 |
Departure
| Time | 2026-04-29 10:30 |
|---|---|
| Airport | Noi Bai International Airport (VVNB) |
Arrival
| Time | 2026-04-29 12:10 |
|---|---|
| Airport | Hong Kong International Airport Kai Tak (VHHX) |
| Time | Latitude | Longitude | Altitude | Speed | Heading |
|---|---|---|---|---|---|
| 2026-04-29 10:08 | 21.21749 | 105.79821 | 48 ft | 0 kts | 200° |
| 2026-04-29 10:21 | 21.21757 | 105.79824 | 46 ft | 2 kts | 200° |
| 2026-04-29 10:21 | 21.21770 | 105.79830 | 46 ft | 2 kts | 200° |
| 2026-04-29 10:21 | 21.21783 | 105.79835 | 47 ft | 2 kts | 200° |
| 2026-04-29 10:22 | 21.21796 | 105.79840 | 47 ft | 2 kts | 200° |
| 2026-04-29 10:22 | 21.21809 | 105.79845 | 44 ft | 2 kts | 202° |
| 2026-04-29 10:22 | 21.21821 | 105.79851 | 44 ft | 2 kts | 205° |
| 2026-04-29 10:22 | 21.21832 | 105.79856 | 45 ft | 1 kts | 215° |
| 2026-04-29 10:23 | 21.21837 | 105.79861 | 44 ft | 1 kts | 230° |
| 2026-04-29 10:23 | 21.21840 | 105.79866 | 44 ft | 1 kts | 251° |
| 2026-04-29 10:23 | 21.21842 | 105.79872 | 48 ft | 1 kts | 268° |
| 2026-04-29 10:23 | 21.21842 | 105.79878 | 48 ft | 1 kts | 277° |
| 2026-04-29 10:24 | 21.21841 | 105.79884 | 48 ft | 1 kts | 282° |
| 2026-04-29 10:24 | 21.21840 | 105.79888 | 47 ft | 0 kts | 284° |
| 2026-04-29 10:25 | 21.21841 | 105.79886 | 48 ft | 2 kts | 284° |
| 2026-04-29 10:25 | 21.21857 | 105.79826 | 48 ft | 13 kts | 287° |
| 2026-04-29 10:25 | 21.21887 | 105.79726 | 48 ft | 14 kts | 288° |
| 2026-04-29 10:26 | 21.21916 | 105.79627 | 48 ft | 14 kts | 287° |
| 2026-04-29 10:26 | 21.21966 | 105.79552 | 48 ft | 13 kts | 348° |
| 2026-04-29 10:26 | 21.22041 | 105.79513 | 48 ft | 13 kts | 295° |
| 2026-04-29 10:26 | 21.22068 | 105.79426 | 45 ft | 12 kts | 287° |
| 2026-04-29 10:27 | 21.22118 | 105.79252 | 48 ft | 13 kts | 287° |
| 2026-04-29 10:27 | 21.22146 | 105.79153 | 48 ft | 15 kts | 288° |
| 2026-04-29 10:27 | 21.22179 | 105.79039 | 48 ft | 17 kts | 287° |
| 2026-04-29 10:28 | 21.22216 | 105.78914 | 49 ft | 18 kts | 287° |
| 2026-04-29 10:28 | 21.22252 | 105.78790 | 49 ft | 17 kts | 287° |
| 2026-04-29 10:28 | 21.22287 | 105.78671 | 47 ft | 16 kts | 287° |
| 2026-04-29 10:28 | 21.22342 | 105.78608 | 49 ft | 10 kts | 0° |
| 2026-04-29 10:29 | 21.22393 | 105.78621 | 49 ft | 7 kts | 14° |
| 2026-04-29 10:29 | 21.22438 | 105.78639 | 49 ft | 7 kts | 34° |
| 2026-04-29 10:29 | 21.22455 | 105.78687 | 49 ft | 7 kts | 103° |
| 2026-04-29 10:29 | 21.22448 | 105.78716 | 49 ft | 18 kts | 107° |
| 2026-04-29 10:30 | 21.22337 | 105.79100 | 49 ft | 89 kts | 107° |
| 2026-04-29 10:30 | 21.22090 | 105.79947 | 43 ft | 147 kts | 107° |
| 2026-04-29 10:30 | 21.21775 | 105.81130 | 279 ft | 173 kts | 104° |
| 2026-04-29 10:30 | 21.21469 | 105.82359 | 1003 ft | 169 kts | 101° |
| 2026-04-29 10:31 | 21.21199 | 105.83584 | 1695 ft | 168 kts | 102° |
| 2026-04-29 10:31 | 21.20871 | 105.84864 | 2132 ft | 193 kts | 104° |
| 2026-04-29 10:31 | 21.20465 | 105.86341 | 2352 ft | 219 kts | 104° |
| 2026-04-29 10:31 | 21.20001 | 105.87976 | 2609 ft | 238 kts | 105° |
| 2026-04-29 10:32 | 21.19503 | 105.89710 | 3017 ft | 253 kts | 104° |
| 2026-04-29 10:32 | 21.18965 | 105.91572 | 3491 ft | 266 kts | 104° |
| 2026-04-29 10:32 | 21.18416 | 105.93464 | 4344 ft | 267 kts | 105° |
| 2026-04-29 10:32 | 21.17867 | 105.95371 | 5175 ft | 268 kts | 103° |
| 2026-04-29 10:33 | 21.17753 | 105.97358 | 5863 ft | 270 kts | 77° |
| 2026-04-29 10:33 | 21.18355 | 105.99260 | 6589 ft | 272 kts | 63° |
| 2026-04-29 10:33 | 21.19376 | 106.00955 | 7110 ft | 280 kts | 39° |
| 2026-04-29 10:33 | 21.21001 | 106.02130 | 7747 ft | 284 kts | 27° |
| 2026-04-29 10:34 | 21.22737 | 106.03179 | 8417 ft | 289 kts | 26° |
| 2026-04-29 10:34 | 21.24519 | 106.04233 | 9062 ft | 296 kts | 26° |
| 2026-04-29 10:34 | 21.26337 | 106.05319 | 9735 ft | 302 kts | 25° |
| 2026-04-29 10:34 | 21.28187 | 106.06434 | 10260 ft | 312 kts | 26° |
| 2026-04-29 10:35 | 21.30147 | 106.07626 | 10400 ft | 335 kts | 26° |
| 2026-04-29 10:35 | 21.32237 | 106.08908 | 10558 ft | 355 kts | 27° |
| 2026-04-29 10:35 | 21.34413 | 106.10254 | 10702 ft | 373 kts | 27° |
| 2026-04-29 10:35 | 21.36707 | 106.11681 | 11005 ft | 384 kts | 27° |
| 2026-04-29 10:36 | 21.39038 | 106.13138 | 11505 ft | 389 kts | 27° |
| 2026-04-29 10:36 | 21.40589 | 106.14109 | 11910 ft | 390 kts | 27° |
| 2026-04-29 10:36 | 21.42938 | 106.15581 | 12506 ft | 392 kts | 27° |
| 2026-04-29 10:36 | 21.45308 | 106.17065 | 13051 ft | 396 kts | 27° |
| 2026-04-29 10:37 | 21.47702 | 106.18564 | 13621 ft | 399 kts | 27° |
| 2026-04-29 10:37 | 21.50113 | 106.20073 | 14139 ft | 403 kts | 27° |
| 2026-04-29 10:37 | 21.52542 | 106.21595 | 14656 ft | 406 kts | 27° |
| 2026-04-29 10:37 | 21.54995 | 106.23134 | 15151 ft | 410 kts | 28° |
| 2026-04-29 10:38 | 21.57409 | 106.24722 | 15692 ft | 412 kts | 27° |
| 2026-04-29 10:38 | 21.59899 | 106.26265 | 16261 ft | 414 kts | 27° |
| 2026-04-29 10:38 | 21.62420 | 106.27810 | 16691 ft | 420 kts | 27° |
| 2026-04-29 10:38 | 21.64967 | 106.29391 | 17185 ft | 424 kts | 27° |
| 2026-04-29 10:39 | 21.67531 | 106.30993 | 17684 ft | 428 kts | 27° |
| 2026-04-29 10:39 | 21.70108 | 106.32616 | 18138 ft | 431 kts | 28° |
| 2026-04-29 10:39 | 21.72707 | 106.34257 | 18566 ft | 434 kts | 28° |
| 2026-04-29 10:39 | 21.75326 | 106.35903 | 18999 ft | 437 kts | 27° |
| 2026-04-29 10:40 | 21.77969 | 106.37543 | 19429 ft | 439 kts | 27° |
| 2026-04-29 10:40 | 21.80623 | 106.39199 | 19818 ft | 443 kts | 27° |
| 2026-04-29 10:40 | 21.83294 | 106.40872 | 20208 ft | 446 kts | 27° |
| 2026-04-29 10:40 | 21.85984 | 106.42560 | 20603 ft | 449 kts | 27° |
| 2026-04-29 10:41 | 21.88688 | 106.44260 | 20977 ft | 452 kts | 27° |
| 2026-04-29 10:41 | 21.91408 | 106.45971 | 21349 ft | 454 kts | 27° |
| 2026-04-29 10:41 | 21.94152 | 106.47696 | 21726 ft | 457 kts | 27° |
| 2026-04-29 10:41 | 21.96871 | 106.49422 | 22086 ft | 460 kts | 30° |
| 2026-04-29 10:42 | 21.99495 | 106.51431 | 22436 ft | 465 kts | 36° |
| 2026-04-29 10:42 | 22.02008 | 106.53656 | 22802 ft | 468 kts | 38° |
| 2026-04-29 10:42 | 22.04486 | 106.55944 | 23128 ft | 471 kts | 38° |
| 2026-04-29 10:42 | 22.06989 | 106.58237 | 23438 ft | 473 kts | 38° |
| 2026-04-29 10:43 | 22.09527 | 106.60512 | 23741 ft | 475 kts | 37° |
| 2026-04-29 10:43 | 22.12092 | 106.62770 | 24004 ft | 477 kts | 37° |
| 2026-04-29 10:43 | 22.14681 | 106.65033 | 24293 ft | 478 kts | 37° |
| 2026-04-29 10:43 | 22.17278 | 106.67307 | 24588 ft | 480 kts | 37° |
| 2026-04-29 10:44 | 22.19776 | 106.69709 | 24853 ft | 483 kts | 41° |
| 2026-04-29 10:44 | 22.22139 | 106.72227 | 25073 ft | 486 kts | 43° |
| 2026-04-29 10:44 | 22.24521 | 106.74844 | 25307 ft | 489 kts | 43° |
| 2026-04-29 10:44 | 22.26921 | 106.77465 | 25523 ft | 491 kts | 43° |
| 2026-04-29 10:45 | 22.29351 | 106.80071 | 25774 ft | 493 kts | 42° |
| 2026-04-29 10:45 | 22.31796 | 106.82671 | 26047 ft | 494 kts | 43° |
| 2026-04-29 10:45 | 22.34011 | 106.85528 | 26266 ft | 499 kts | 54° |
| 2026-04-29 10:45 | 22.35709 | 106.88824 | 26498 ft | 503 kts | 65° |
| 2026-04-29 10:46 | 22.36863 | 106.92397 | 26740 ft | 506 kts | 76° |
| 2026-04-29 10:46 | 22.37537 | 106.96080 | 26975 ft | 507 kts | 79° |
| 2026-04-29 10:46 | 22.38147 | 106.99856 | 27182 ft | 509 kts | 80° |
| 2026-04-29 10:46 | 22.38759 | 107.03641 | 27386 ft | 511 kts | 79° |
| 2026-04-29 10:47 | 22.39394 | 107.07424 | 27580 ft | 513 kts | 79° |
| 2026-04-29 10:47 | 22.40058 | 107.11237 | 27755 ft | 515 kts | 79° |
| 2026-04-29 10:47 | 22.40729 | 107.15008 | 27956 ft | 517 kts | 79° |
| 2026-04-29 10:47 | 22.41414 | 107.18827 | 28167 ft | 518 kts | 79° |
| 2026-04-29 10:48 | 22.42099 | 107.22663 | 28365 ft | 520 kts | 79° |
| 2026-04-29 10:48 | 22.42781 | 107.26505 | 28574 ft | 521 kts | 79° |
| 2026-04-29 10:48 | 22.43472 | 107.30354 | 28860 ft | 520 kts | 78° |
| 2026-04-29 10:48 | 22.44167 | 107.34193 | 29168 ft | 519 kts | 78° |
| 2026-04-29 10:49 | 22.44864 | 107.38021 | 29455 ft | 519 kts | 78° |
| 2026-04-29 10:49 | 22.45559 | 107.41847 | 29719 ft | 519 kts | 78° |
| 2026-04-29 10:49 | 22.46255 | 107.45688 | 29945 ft | 521 kts | 78° |
| 2026-04-29 10:49 | 22.46953 | 107.49546 | 30104 ft | 523 kts | 78° |
| 2026-04-29 10:50 | 22.47648 | 107.53408 | 30311 ft | 523 kts | 79° |
| 2026-04-29 10:50 | 22.48342 | 107.57267 | 30617 ft | 521 kts | 79° |
| 2026-04-29 10:50 | 22.49022 | 107.61060 | 30933 ft | 520 kts | 79° |
| 2026-04-29 10:50 | 22.49711 | 107.64904 | 31209 ft | 519 kts | 79° |
| 2026-04-29 10:51 | 22.50398 | 107.68743 | 31464 ft | 519 kts | 79° |
| 2026-04-29 10:51 | 22.51083 | 107.72573 | 31732 ft | 519 kts | 79° |
| 2026-04-29 10:51 | 22.51766 | 107.76403 | 32010 ft | 518 kts | 79° |
| 2026-04-29 10:51 | 22.52452 | 107.80250 | 32239 ft | 519 kts | 79° |
| 2026-04-29 10:52 | 22.53127 | 107.84042 | 32495 ft | 519 kts | 79° |
| 2026-04-29 10:52 | 22.53807 | 107.87871 | 32795 ft | 518 kts | 79° |
| 2026-04-29 10:52 | 22.54485 | 107.91691 | 33112 ft | 517 kts | 79° |
| 2026-04-29 10:52 | 22.55163 | 107.95515 | 33406 ft | 516 kts | 79° |
| 2026-04-29 10:53 | 22.55838 | 107.99329 | 33685 ft | 516 kts | 79° |
| 2026-04-29 10:53 | 22.56513 | 108.03151 | 33986 ft | 515 kts | 79° |
| 2026-04-29 10:53 | 22.57185 | 108.06959 | 34263 ft | 514 kts | 79° |
| 2026-04-29 10:53 | 22.57854 | 108.10755 | 34526 ft | 513 kts | 79° |
| 2026-04-29 10:54 | 22.58522 | 108.14555 | 34763 ft | 513 kts | 80° |
| 2026-04-29 10:54 | 22.59085 | 108.18318 | 34976 ft | 513 kts | 83° |
| 2026-04-29 10:54 | 22.59557 | 108.22203 | 34984 ft | 516 kts | 84° |
| 2026-04-29 10:55 | 22.60367 | 108.29857 | 34992 ft | 513 kts | 84° |
| 2026-04-29 10:55 | 22.61184 | 108.37509 | 34996 ft | 510 kts | 84° |
| 2026-04-29 10:56 | 22.62035 | 108.45120 | 34980 ft | 508 kts | 84° |
| 2026-04-29 10:56 | 22.62895 | 108.52692 | 35003 ft | 506 kts | 84° |
| 2026-04-29 10:57 | 22.63746 | 108.60219 | 35032 ft | 506 kts | 83° |
| 2026-04-29 10:57 | 22.64596 | 108.67798 | 35023 ft | 508 kts | 83° |
| 2026-04-29 10:58 | 22.65447 | 108.75418 | 35018 ft | 511 kts | 83° |
| 2026-04-29 10:58 | 22.66298 | 108.83080 | 35016 ft | 514 kts | 84° |
| 2026-04-29 10:59 | 22.67153 | 108.90804 | 35014 ft | 516 kts | 84° |
| 2026-04-29 10:59 | 22.68005 | 108.98545 | 35013 ft | 518 kts | 84° |
| 2026-04-29 11:00 | 22.68851 | 109.06252 | 35007 ft | 519 kts | 84° |
| 2026-04-29 11:00 | 22.69703 | 109.14024 | 35006 ft | 518 kts | 84° |
| 2026-04-29 11:01 | 22.70594 | 109.21768 | 35015 ft | 516 kts | 83° |
| 2026-04-29 11:01 | 22.71491 | 109.29439 | 35010 ft | 515 kts | 83° |
| 2026-04-29 11:02 | 22.72383 | 109.37131 | 35012 ft | 514 kts | 84° |
| 2026-04-29 11:02 | 22.73265 | 109.44823 | 35009 ft | 513 kts | 84° |
| 2026-04-29 11:03 | 22.74139 | 109.52486 | 35015 ft | 512 kts | 84° |
| 2026-04-29 11:03 | 22.75007 | 109.60138 | 35003 ft | 511 kts | 84° |
| 2026-04-29 11:04 | 22.75867 | 109.67746 | 35010 ft | 511 kts | 84° |
| 2026-04-29 11:04 | 22.76727 | 109.75382 | 35008 ft | 510 kts | 84° |
| 2026-04-29 11:05 | 22.77583 | 109.83014 | 35005 ft | 510 kts | 84° |
| 2026-04-29 11:05 | 22.78434 | 109.90639 | 35023 ft | 510 kts | 84° |
| 2026-04-29 11:06 | 22.79283 | 109.98285 | 35017 ft | 511 kts | 84° |
| 2026-04-29 11:06 | 22.80127 | 110.05915 | 35019 ft | 513 kts | 84° |
| 2026-04-29 11:07 | 22.80975 | 110.13613 | 35022 ft | 515 kts | 84° |
| 2026-04-29 11:07 | 22.81817 | 110.21297 | 35014 ft | 517 kts | 84° |
| 2026-04-29 11:08 | 22.82664 | 110.29048 | 35016 ft | 518 kts | 84° |
| 2026-04-29 11:08 | 22.83505 | 110.36796 | 35021 ft | 517 kts | 84° |
| 2026-04-29 11:09 | 22.84344 | 110.44550 | 35018 ft | 517 kts | 84° |
| 2026-04-29 11:09 | 22.85179 | 110.52300 | 35015 ft | 516 kts | 84° |
| 2026-04-29 11:10 | 22.86028 | 110.59985 | 35017 ft | 515 kts | 83° |
| 2026-04-29 11:10 | 22.86945 | 110.67684 | 35023 ft | 514 kts | 83° |
| 2026-04-29 11:11 | 22.87858 | 110.75375 | 35018 ft | 513 kts | 83° |
| 2026-04-29 11:11 | 22.88753 | 110.83052 | 35026 ft | 512 kts | 84° |
| 2026-04-29 11:12 | 22.89641 | 110.90708 | 35014 ft | 511 kts | 84° |
| 2026-04-29 11:12 | 22.90524 | 110.98352 | 35014 ft | 510 kts | 84° |
| 2026-04-29 11:13 | 22.91396 | 111.05928 | 35016 ft | 508 kts | 84° |
| 2026-04-29 11:13 | 22.92269 | 111.13542 | 35039 ft | 508 kts | 84° |
| 2026-04-29 11:14 | 22.93137 | 111.21155 | 35020 ft | 508 kts | 84° |
| 2026-04-29 11:14 | 22.94005 | 111.28790 | 35013 ft | 510 kts | 84° |
| 2026-04-29 11:15 | 22.94866 | 111.36397 | 35005 ft | 512 kts | 84° |
| 2026-04-29 11:15 | 22.95729 | 111.44068 | 35006 ft | 513 kts | 84° |
| 2026-04-29 11:16 | 22.96594 | 111.51775 | 34998 ft | 514 kts | 84° |
| 2026-04-29 11:16 | 22.97457 | 111.59506 | 34990 ft | 515 kts | 84° |
| 2026-04-29 11:17 | 22.98301 | 111.67188 | 35000 ft | 516 kts | 84° |
| 2026-04-29 11:17 | 22.99143 | 111.74926 | 34990 ft | 516 kts | 84° |
| 2026-04-29 11:18 | 22.99983 | 111.82662 | 34989 ft | 515 kts | 84° |
| 2026-04-29 11:18 | 23.00814 | 111.90349 | 34984 ft | 514 kts | 84° |
| 2026-04-29 11:19 | 23.01643 | 111.98048 | 34983 ft | 513 kts | 84° |
| 2026-04-29 11:19 | 23.02468 | 112.05745 | 34979 ft | 512 kts | 84° |
| 2026-04-29 11:20 | 23.03286 | 112.13417 | 34982 ft | 510 kts | 84° |
| 2026-04-29 11:20 | 23.04098 | 112.21066 | 34979 ft | 510 kts | 84° |
| 2026-04-29 11:21 | 23.04901 | 112.28666 | 34978 ft | 510 kts | 84° |
| 2026-04-29 11:21 | 23.05705 | 112.36310 | 34978 ft | 509 kts | 85° |
| 2026-04-29 11:22 | 23.06506 | 112.43958 | 34972 ft | 510 kts | 85° |
| 2026-04-29 11:22 | 23.06948 | 112.51627 | 34966 ft | 508 kts | 95° |
| 2026-04-29 11:23 | 23.06405 | 112.59284 | 34972 ft | 508 kts | 97° |
| 2026-04-29 11:23 | 23.05805 | 112.66902 | 34966 ft | 509 kts | 97° |
| 2026-04-29 11:24 | 23.05258 | 112.74586 | 34971 ft | 510 kts | 96° |
| 2026-04-29 11:24 | 23.04740 | 112.82275 | 34967 ft | 511 kts | 96° |
| 2026-04-29 11:25 | 23.04218 | 112.89980 | 34965 ft | 511 kts | 96° |
| 2026-04-29 11:25 | 23.03779 | 112.96370 | 34960 ft | 511 kts | 97° |
| 2026-04-29 11:26 | 23.02891 | 113.09163 | 34956 ft | 510 kts | 97° |
| 2026-04-29 11:26 | 23.02197 | 113.15544 | 34934 ft | 505 kts | 109° |
| 2026-04-29 11:27 | 23.00935 | 113.19055 | 34960 ft | 496 kts | 122° |
| 2026-04-29 11:27 | 22.99096 | 113.22183 | 34949 ft | 489 kts | 133° |
| 2026-04-29 11:27 | 22.94318 | 113.27253 | 34941 ft | 481 kts | 142° |
| 2026-04-29 11:28 | 22.89382 | 113.32173 | 34930 ft | 482 kts | 142° |
| 2026-04-29 11:28 | 22.84473 | 113.37145 | 34933 ft | 482 kts | 141° |
| 2026-04-29 11:29 | 22.79587 | 113.42139 | 34927 ft | 483 kts | 141° |
| 2026-04-29 11:29 | 22.74692 | 113.47147 | 34929 ft | 484 kts | 141° |
| 2026-04-29 11:30 | 22.69814 | 113.52127 | 34934 ft | 484 kts | 141° |
| 2026-04-29 11:30 | 22.64904 | 113.57133 | 34931 ft | 484 kts | 141° |
| 2026-04-29 11:31 | 22.59986 | 113.62140 | 34935 ft | 484 kts | 141° |
| 2026-04-29 11:31 | 22.55072 | 113.67140 | 34936 ft | 484 kts | 141° |
| 2026-04-29 11:32 | 22.50197 | 113.72096 | 34933 ft | 483 kts | 141° |
| 2026-04-29 11:32 | 22.45302 | 113.77068 | 34924 ft | 482 kts | 141° |
| 2026-04-29 11:33 | 22.40291 | 113.81884 | 34912 ft | 475 kts | 153° |
| 2026-04-29 11:33 | 22.37314 | 113.83283 | 34955 ft | 462 kts | 170° |
| 2026-04-29 11:33 | 22.34202 | 113.83735 | 34944 ft | 454 kts | 184° |
| 2026-04-29 11:34 | 22.31085 | 113.83434 | 34937 ft | 448 kts | 195° |
| 2026-04-29 11:34 | 22.28156 | 113.82384 | 34941 ft | 441 kts | 208° |
| 2026-04-29 11:34 | 22.22727 | 113.79298 | 34919 ft | 441 kts | 211° |
| 2026-04-29 11:35 | 22.17342 | 113.76092 | 34910 ft | 443 kts | 211° |
| 2026-04-29 11:35 | 22.11909 | 113.72914 | 34915 ft | 445 kts | 211° |
| 2026-04-29 11:36 | 22.06434 | 113.69759 | 34911 ft | 446 kts | 210° |
| 2026-04-29 11:36 | 22.00948 | 113.66616 | 34911 ft | 447 kts | 210° |
| 2026-04-29 11:37 | 21.95447 | 113.63468 | 34910 ft | 447 kts | 210° |
| 2026-04-29 11:37 | 21.89952 | 113.60326 | 34909 ft | 447 kts | 210° |
| 2026-04-29 11:38 | 21.84491 | 113.57202 | 34907 ft | 447 kts | 210° |
| 2026-04-29 11:38 | 21.78988 | 113.54058 | 34914 ft | 447 kts | 210° |
| 2026-04-29 11:39 | 21.73494 | 113.50923 | 34911 ft | 447 kts | 210° |
| 2026-04-29 11:39 | 21.67988 | 113.47782 | 34609 ft | 448 kts | 210° |
| 2026-04-29 11:40 | 21.65233 | 113.46212 | 34383 ft | 448 kts | 209° |
| 2026-04-29 11:40 | 21.62481 | 113.44644 | 34160 ft | 449 kts | 209° |
| 2026-04-29 11:40 | 21.59713 | 113.43068 | 33940 ft | 450 kts | 209° |
| 2026-04-29 11:40 | 21.56944 | 113.41492 | 33692 ft | 451 kts | 209° |
| 2026-04-29 11:41 | 21.54163 | 113.39910 | 33448 ft | 452 kts | 209° |
| 2026-04-29 11:41 | 21.51382 | 113.38329 | 33191 ft | 453 kts | 209° |
| 2026-04-29 11:41 | 21.48628 | 113.36763 | 32953 ft | 453 kts | 209° |
| 2026-04-29 11:41 | 21.45842 | 113.35180 | 32706 ft | 454 kts | 209° |
| 2026-04-29 11:42 | 21.43053 | 113.33597 | 31941 ft | 455 kts | 210° |
| 2026-04-29 11:42 | 21.40260 | 113.32011 | 31244 ft | 453 kts | 210° |
| 2026-04-29 11:42 | 21.37476 | 113.30431 | 30451 ft | 453 kts | 210° |
| 2026-04-29 11:42 | 21.34671 | 113.28839 | 29546 ft | 455 kts | 210° |
| 2026-04-29 11:43 | 21.31874 | 113.27252 | 28597 ft | 455 kts | 210° |
| 2026-04-29 11:43 | 21.29065 | 113.25670 | 27702 ft | 455 kts | 208° |
| 2026-04-29 11:43 | 21.26099 | 113.24604 | 27018 ft | 459 kts | 192° |
| 2026-04-29 11:43 | 21.22893 | 113.24444 | 26345 ft | 466 kts | 179° |
| 2026-04-29 11:44 | 21.19687 | 113.25068 | 25616 ft | 472 kts | 166° |
| 2026-04-29 11:44 | 21.16682 | 113.26464 | 24873 ft | 468 kts | 153° |
| 2026-04-29 11:44 | 21.14095 | 113.28594 | 24163 ft | 474 kts | 138° |
| 2026-04-29 11:44 | 21.12046 | 113.31379 | 23403 ft | 481 kts | 123° |
| 2026-04-29 11:45 | 21.10705 | 113.34647 | 22541 ft | 478 kts | 108° |
| 2026-04-29 11:45 | 21.10188 | 113.38137 | 21807 ft | 475 kts | 92° |
| 2026-04-29 11:45 | 21.10487 | 113.41659 | 21065 ft | 476 kts | 77° |
| 2026-04-29 11:45 | 21.11570 | 113.44973 | 20331 ft | 470 kts | 63° |
| 2026-04-29 11:46 | 21.13281 | 113.47942 | 19588 ft | 465 kts | 50° |
| 2026-04-29 11:46 | 21.15524 | 113.50340 | 18883 ft | 449 kts | 35° |
| 2026-04-29 11:46 | 21.17993 | 113.52278 | 18217 ft | 445 kts | 32° |
| 2026-04-29 11:46 | 21.20535 | 113.54171 | 17436 ft | 441 kts | 31° |
| 2026-04-29 11:47 | 21.23020 | 113.56032 | 16746 ft | 435 kts | 32° |
| 2026-04-29 11:47 | 21.25487 | 113.57926 | 16068 ft | 434 kts | 33° |
| 2026-04-29 11:47 | 21.27930 | 113.59832 | 15405 ft | 434 kts | 33° |
| 2026-04-29 11:47 | 21.30416 | 113.61630 | 14841 ft | 426 kts | 25° |
| 2026-04-29 11:48 | 21.33088 | 113.62869 | 14505 ft | 412 kts | 18° |
| 2026-04-29 11:48 | 21.35726 | 113.63928 | 14164 ft | 400 kts | 17° |
| 2026-04-29 11:48 | 21.38319 | 113.64998 | 13837 ft | 400 kts | 19° |
| 2026-04-29 11:48 | 21.40868 | 113.66099 | 13492 ft | 391 kts | 19° |
| 2026-04-29 11:49 | 21.43359 | 113.67200 | 13146 ft | 381 kts | 20° |
| 2026-04-29 11:49 | 21.45584 | 113.68627 | 12824 ft | 370 kts | 39° |
| 2026-04-29 11:49 | 21.47267 | 113.70639 | 12641 ft | 362 kts | 50° |
| 2026-04-29 11:49 | 21.48799 | 113.72765 | 12418 ft | 359 kts | 51° |
| 2026-04-29 11:50 | 21.50297 | 113.74899 | 12196 ft | 356 kts | 51° |
| 2026-04-29 11:50 | 21.51792 | 113.77033 | 11993 ft | 360 kts | 51° |
| 2026-04-29 11:50 | 21.53317 | 113.79199 | 11779 ft | 364 kts | 51° |
| 2026-04-29 11:50 | 21.54849 | 113.81363 | 11549 ft | 362 kts | 51° |
| 2026-04-29 11:51 | 21.56375 | 113.83509 | 11328 ft | 360 kts | 51° |
| 2026-04-29 11:51 | 21.57873 | 113.85610 | 11113 ft | 358 kts | 51° |
| 2026-04-29 11:51 | 21.59391 | 113.87735 | 10894 ft | 357 kts | 51° |
| 2026-04-29 11:51 | 21.60899 | 113.89844 | 10687 ft | 348 kts | 51° |
| 2026-04-29 11:52 | 21.62353 | 113.91879 | 10487 ft | 340 kts | 51° |
| 2026-04-29 11:52 | 21.63761 | 113.93848 | 10300 ft | 333 kts | 51° |
| 2026-04-29 11:52 | 21.65144 | 113.95783 | 10107 ft | 320 kts | 51° |
| 2026-04-29 11:52 | 21.66478 | 113.97651 | 9923 ft | 310 kts | 51° |
| 2026-04-29 11:53 | 21.67779 | 113.99471 | 9747 ft | 305 kts | 51° |
| 2026-04-29 11:53 | 21.69066 | 114.01273 | 9548 ft | 301 kts | 51° |
| 2026-04-29 11:53 | 21.70346 | 114.03063 | 9373 ft | 301 kts | 51° |
| 2026-04-29 11:53 | 21.71629 | 114.04859 | 9189 ft | 302 kts | 51° |
| 2026-04-29 11:54 | 21.72912 | 114.06656 | 9006 ft | 303 kts | 51° |
| 2026-04-29 11:54 | 21.74178 | 114.08429 | 8814 ft | 303 kts | 51° |
| 2026-04-29 11:54 | 21.75464 | 114.10233 | 8634 ft | 303 kts | 51° |
| 2026-04-29 11:54 | 21.76750 | 114.12035 | 8452 ft | 303 kts | 51° |
| 2026-04-29 11:55 | 21.78034 | 114.13837 | 8268 ft | 303 kts | 51° |
| 2026-04-29 11:55 | 21.79315 | 114.15636 | 8082 ft | 302 kts | 51° |
| 2026-04-29 11:55 | 21.80592 | 114.17429 | 7901 ft | 301 kts | 51° |
| 2026-04-29 11:55 | 21.81860 | 114.19210 | 7720 ft | 299 kts | 51° |
| 2026-04-29 11:56 | 21.83119 | 114.20980 | 7524 ft | 297 kts | 51° |
| 2026-04-29 11:56 | 21.84369 | 114.22737 | 7350 ft | 295 kts | 51° |
| 2026-04-29 11:56 | 21.85614 | 114.24486 | 7169 ft | 293 kts | 51° |
| 2026-04-29 11:56 | 21.86846 | 114.26219 | 7002 ft | 290 kts | 51° |
| 2026-04-29 11:57 | 21.88054 | 114.27919 | 6831 ft | 288 kts | 51° |
| 2026-04-29 11:57 | 21.89244 | 114.29594 | 6774 ft | 273 kts | 51° |
| 2026-04-29 11:57 | 21.90371 | 114.31182 | 6663 ft | 260 kts | 51° |
| 2026-04-29 11:57 | 21.91443 | 114.32693 | 6565 ft | 247 kts | 51° |
| 2026-04-29 11:58 | 21.92453 | 114.34115 | 6415 ft | 233 kts | 51° |
| 2026-04-29 11:58 | 21.93446 | 114.35514 | 6085 ft | 233 kts | 51° |
| 2026-04-29 11:58 | 21.94417 | 114.36882 | 5873 ft | 226 kts | 51° |
| 2026-04-29 11:58 | 21.95358 | 114.38209 | 5731 ft | 221 kts | 51° |
| 2026-04-29 11:59 | 21.96298 | 114.39532 | 5595 ft | 223 kts | 51° |
| 2026-04-29 11:59 | 21.97239 | 114.40859 | 5488 ft | 222 kts | 51° |
| 2026-04-29 11:59 | 21.98162 | 114.42159 | 5337 ft | 220 kts | 52° |
| 2026-04-29 11:59 | 21.99088 | 114.43476 | 5205 ft | 220 kts | 52° |
| 2026-04-29 12:00 | 22.00021 | 114.44792 | 5079 ft | 221 kts | 51° |
| 2026-04-29 12:00 | 22.00957 | 114.46106 | 4958 ft | 218 kts | 51° |
| 2026-04-29 12:00 | 22.01867 | 114.47388 | 4780 ft | 211 kts | 52° |
| 2026-04-29 12:00 | 22.02748 | 114.48623 | 4646 ft | 206 kts | 47° |
| 2026-04-29 12:01 | 22.03921 | 114.49416 | 4520 ft | 197 kts | 1° |
| 2026-04-29 12:01 | 22.05157 | 114.49089 | 4530 ft | 180 kts | 319° |
| 2026-04-29 12:01 | 22.06156 | 114.48300 | 4515 ft | 181 kts | 318° |
| 2026-04-29 12:01 | 22.07163 | 114.47494 | 4503 ft | 180 kts | 319° |
| 2026-04-29 12:02 | 22.08175 | 114.46703 | 4506 ft | 177 kts | 316° |
| 2026-04-29 12:02 | 22.09080 | 114.45812 | 4513 ft | 175 kts | 309° |
| 2026-04-29 12:02 | 22.09924 | 114.44864 | 4509 ft | 176 kts | 308° |
| 2026-04-29 12:02 | 22.10768 | 114.43901 | 4501 ft | 178 kts | 308° |
| 2026-04-29 12:03 | 22.11624 | 114.42931 | 4503 ft | 178 kts | 307° |
| 2026-04-29 12:03 | 22.12478 | 114.41956 | 4502 ft | 179 kts | 309° |
| 2026-04-29 12:03 | 22.13345 | 114.40978 | 4505 ft | 182 kts | 309° |
| 2026-04-29 12:03 | 22.14215 | 114.39990 | 4504 ft | 180 kts | 308° |
| 2026-04-29 12:04 | 22.15067 | 114.39016 | 4362 ft | 180 kts | 309° |
| 2026-04-29 12:04 | 22.15918 | 114.38053 | 4154 ft | 174 kts | 309° |
| 2026-04-29 12:04 | 22.16727 | 114.37136 | 3898 ft | 163 kts | 311° |
| 2026-04-29 12:04 | 22.17477 | 114.36285 | 3738 ft | 152 kts | 311° |
| 2026-04-29 12:05 | 22.18203 | 114.35460 | 3531 ft | 148 kts | 311° |
| 2026-04-29 12:05 | 22.18905 | 114.34664 | 3333 ft | 146 kts | 312° |
| 2026-04-29 12:05 | 22.19612 | 114.33861 | 3138 ft | 148 kts | 313° |
| 2026-04-29 12:05 | 22.20314 | 114.33065 | 2929 ft | 146 kts | 314° |
| 2026-04-29 12:06 | 22.21007 | 114.32277 | 2742 ft | 143 kts | 315° |
| 2026-04-29 12:06 | 22.21689 | 114.31504 | 2553 ft | 142 kts | 317° |
| 2026-04-29 12:06 | 22.22371 | 114.30731 | 2365 ft | 143 kts | 318° |
| 2026-04-29 12:06 | 22.23033 | 114.29979 | 2198 ft | 133 kts | 319° |
| 2026-04-29 12:07 | 22.23664 | 114.29264 | 2012 ft | 136 kts | 319° |
| 2026-04-29 12:07 | 22.24324 | 114.28517 | 1801 ft | 137 kts | 320° |
| 2026-04-29 12:07 | 22.24993 | 114.27759 | 1638 ft | 141 kts | 321° |
| 2026-04-29 12:07 | 22.25663 | 114.26998 | 1444 ft | 138 kts | 319° |
| 2026-04-29 12:08 | 22.26321 | 114.26250 | 1276 ft | 137 kts | 319° |
| 2026-04-29 12:08 | 22.26980 | 114.25503 | 1092 ft | 137 kts | 318° |
| 2026-04-29 12:08 | 22.27638 | 114.24756 | 915 ft | 137 kts | 319° |
| 2026-04-29 12:08 | 22.28282 | 114.24027 | 755 ft | 131 kts | 318° |
| 2026-04-29 12:09 | 22.28906 | 114.23321 | 567 ft | 131 kts | 319° |
| 2026-04-29 12:09 | 22.29548 | 114.22598 | 392 ft | 135 kts | 316° |
| 2026-04-29 12:09 | 22.30192 | 114.21867 | 182 ft | 131 kts | 318° |
| 2026-04-29 12:09 | 22.30825 | 114.21161 | 54 ft | 126 kts | 316° |
| 2026-04-29 12:10 | 22.31370 | 114.20559 | 41 ft | 89 kts | 314° |
| 2026-04-29 12:10 | 22.31699 | 114.20187 | 41 ft | 51 kts | 314° |
| 2026-04-29 12:10 | 22.31849 | 114.20026 | 41 ft | 22 kts | 322° |
| 2026-04-29 12:10 | 22.31942 | 114.19981 | 42 ft | 12 kts | 335° |
| 2026-04-29 12:11 | 22.32017 | 114.19949 | 42 ft | 11 kts | 340° |
| 2026-04-29 12:11 | 22.32090 | 114.19926 | 42 ft | 11 kts | 344° |
| 2026-04-29 12:11 | 22.32163 | 114.19912 | 42 ft | 10 kts | 352° |
| 2026-04-29 12:11 | 22.32234 | 114.19914 | 42 ft | 10 kts | 8° |
| 2026-04-29 12:12 | 22.32302 | 114.19929 | 42 ft | 10 kts | 21° |
| 2026-04-29 12:12 | 22.32331 | 114.19989 | 42 ft | 8 kts | 99° |
| 2026-04-29 12:12 | 22.32293 | 114.20055 | 41 ft | 14 kts | 126° |
| 2026-04-29 12:12 | 22.32215 | 114.20147 | 41 ft | 20 kts | 135° |
| 2026-04-29 12:13 | 22.32126 | 114.20246 | 41 ft | 7 kts | 134° |
| 2026-04-29 12:13 | 22.32111 | 114.20295 | 41 ft | 8 kts | 51° |
| 2026-04-29 12:13 | 22.32156 | 114.20332 | 41 ft | 8 kts | 45° |
| 2026-04-29 12:13 | 22.32158 | 114.20335 | 41 ft | 0 kts | 45° |